Time;durP1;ratioP1;P1;durP2;ratioP2;P2;SDS_P1;SDS_P2;PMS_P1;PMS_P2;Temp;Humidity;BMP_temperature;BMP_pressure;BME280_temperature;BME280_humidity;BME280_pressure;Samples;Min_cycle;Max_cycle;Signal;HPM_P1;HPM_P2
2022/07/23 00:01:21;;;;;;;9.38;3.83;;;14.80;99.90;;;;;;5034865;28;20037;-49
2022/07/23 00:03:47;;;;;;;11.60;4.65;;;14.70;99.90;;;;;;5034123;28;20049;-47
2022/07/23 00:06:13;;;;;;;9.88;4.85;;;14.80;99.90;;;;;;5034274;28;20064;-46
2022/07/23 00:08:38;;;;;;;8.35;4.95;;;14.90;99.90;;;;;;5034240;28;20044;-46
2022/07/23 00:11:04;;;;;;;8.98;4.57;;;14.90;99.90;;;;;;5033847;28;20056;-47
2022/07/23 00:13:30;;;;;;;8.88;4.90;;;14.90;99.90;;;;;;5034009;28;20067;-47
2022/07/23 00:15:56;;;;;;;7.72;4.78;;;15.00;99.90;;;;;;5033689;28;20056;-47
2022/07/23 00:18:21;;;;;;;12.65;5.28;;;15.00;99.90;;;;;;5033599;28;20176;-46
2022/07/23 00:20:47;;;;;;;10.23;4.93;;;15.00;99.90;;;;;;5044229;28;20055;-47
2022/07/23 00:23:13;;;;;;;9.07;4.82;;;15.00;99.90;;;;;;5053661;28;20439;-46
2022/07/23 00:25:39;;;;;;;10.23;4.38;;;14.90;99.90;;;;;;5053244;28;20041;-47
2022/07/23 00:28:05;;;;;;;11.57;5.10;;;14.90;99.90;;;;;;5053539;28;20053;-46
2022/07/23 00:30:31;;;;;;;12.05;5.65;;;14.80;99.90;;;;;;5053287;28;20449;-47
2022/07/23 00:33:03;;;;;;;7.30;4.63;;;14.90;99.90;;;;;;5053465;28;20037;-46
2022/07/23 00:35:31;;;;;;;;;;;14.90;99.90;;;;;;5053966;28;20041;-46
2022/07/23 00:37:57;;;;;;;8.75;4.75;;;14.80;99.90;;;;;;5053458;28;20431;-46
2022/07/23 00:40:23;;;;;;;10.82;5.13;;;14.80;99.90;;;;;;5053070;28;20039;-46
2022/07/23 00:42:49;;;;;;;10.38;5.47;;;14.90;99.90;;;;;;5053468;28;20037;-46
2022/07/23 00:45:15;;;;;;;10.23;4.97;;;14.90;99.90;;;;;;5053316;28;20518;-45
2022/07/23 00:47:40;;;;;;;8.00;5.05;;;14.90;99.90;;;;;;5053313;28;20059;-45
2022/07/23 00:50:08;;;;;;;10.65;6.13;;;14.80;99.90;;;;;;5068298;28;20454;-46
2022/07/23 00:52:35;;;;;;;10.45;5.30;;;14.90;99.90;;;;;;5053030;28;20043;-45
2022/07/23 00:55:01;;;;;;;9.98;5.03;;;14.80;99.90;;;;;;5053147;28;20119;-45
2022/07/23 00:57:27;;;;;;;10.32;5.30;;;14.80;99.90;;;;;;5053172;28;20079;-45
2022/07/23 00:59:53;;;;;;;9.15;5.05;;;14.80;99.90;;;;;;5052729;28;20061;-46
2022/07/23 01:02:18;;;;;;;8.50;4.75;;;14.80;99.90;;;;;;5053027;28;20393;-45
2022/07/23 01:04:44;;;;;;;10.50;5.57;;;14.80;99.90;;;;;;5052938;28;20425;-44
2022/07/23 01:07:10;;;;;;;9.75;5.50;;;14.80;99.90;;;;;;5051816;28;20049;-45
2022/07/23 01:09:37;;;;;;;9.95;5.80;;;14.80;99.90;;;;;;5052848;28;20377;-45
2022/07/23 01:12:03;;;;;;;9.88;5.40;;;14.80;99.90;;;;;;5084899;28;20048;-45
2022/07/23 01:14:28;;;;;;;10.63;5.47;;;14.80;99.90;;;;;;5052519;28;20397;-45
2022/07/23 01:16:54;;;;;;;15.98;6.28;;;14.80;99.90;;;;;;5052727;28;20029;-45
2022/07/23 01:19:20;;;;;;;9.40;5.03;;;14.80;99.90;;;;;;5052779;28;20044;-48
2022/07/23 01:21:51;;;;;;;9.98;5.55;;;14.80;99.90;;;;;;5034065;28;20533;-45
2022/07/23 01:24:19;;;;;;;11.52;5.53;;;14.80;99.90;;;;;;5032851;28;20171;-44
2022/07/23 01:26:46;;;;;;;12.80;5.88;;;14.80;99.90;;;;;;5032385;28;20064;-48
2022/07/23 01:29:13;;;;;;;9.45;5.40;;;14.80;99.90;;;;;;5032284;28;20386;-46
2022/07/23 01:31:39;;;;;;;10.52;5.93;;;14.80;99.90;;;;;;5032223;28;20057;-46
2022/07/23 01:34:06;;;;;;;8.85;4.85;;;14.70;99.90;;;;;;5032614;28;20085;-45
2022/07/23 01:36:35;;;;;;;8.07;5.65;;;14.80;99.90;;;;;;5031559;28;20563;-47
2022/07/23 01:39:03;;;;;;;11.30;6.35;;;14.70;99.90;;;;;;5032189;28;20560;-50
2022/07/23 01:41:29;;;;;;;8.82;5.95;;;14.70;99.90;;;;;;5032087;28;20479;-47
2022/07/23 01:43:54;;;;;;;11.60;6.25;;;14.70;99.90;;;;;;5032357;28;20052;-45
2022/07/23 01:46:20;;;;;;;9.55;5.55;;;14.60;99.90;;;;;;5032340;28;20048;-49
2022/07/23 01:48:46;;;;;;;10.38;6.05;;;14.70;99.90;;;;;;5032400;28;20072;-46
2022/07/23 01:51:12;;;;;;;10.70;6.18;;;14.70;99.90;;;;;;5032246;28;20041;-48
2022/07/23 01:53:37;;;;;;;9.45;5.82;;;14.70;99.90;;;;;;5032127;28;20041;-46
2022/07/23 01:56:03;;;;;;;10.32;5.20;;;14.70;99.90;;;;;;5032328;28;20401;-47
2022/07/23 01:58:30;;;;;;;7.97;4.57;;;14.70;99.90;;;;;;5032035;28;20073;-47
2022/07/23 02:00:56;;;;;;;11.43;5.78;;;14.70;99.90;;;;;;5032274;28;20380;-45
2022/07/23 02:03:22;;;;;;;11.45;5.78;;;14.60;99.90;;;;;;5032045;28;20532;-46
2022/07/23 02:05:48;;;;;;;12.75;4.95;;;14.30;99.90;;;;;;5032129;28;20397;-47
2022/07/23 02:08:14;;;;;;;10.40;4.85;;;14.40;99.90;;;;;;5032273;28;20094;-47
2022/07/23 02:10:40;;;;;;;10.52;5.70;;;14.30;99.90;;;;;;5031907;28;20041;-49
2022/07/23 02:13:05;;;;;;;13.85;6.03;;;14.40;99.90;;;;;;5031751;28;20505;-48
2022/07/23 02:15:31;;;;;;;10.95;5.88;;;14.20;99.90;;;;;;5031768;28;20041;-46
2022/07/23 02:17:57;;;;;;;9.93;5.15;;;14.20;99.90;;;;;;5031933;28;20064;-47
2022/07/23 02:20:24;;;;;;;9.45;5.80;;;14.40;99.90;;;;;;5039289;28;20041;-46
2022/07/23 02:22:50;;;;;;;11.70;6.43;;;14.40;99.90;;;;;;5052014;28;20378;-45
2022/07/23 02:25:16;;;;;;;12.43;5.60;;;14.30;99.90;;;;;;5051590;28;20044;-46
2022/07/23 02:27:42;;;;;;;9.00;5.40;;;14.50;99.90;;;;;;5051929;28;20432;-46
2022/07/23 02:30:08;;;;;;;9.45;5.82;;;14.40;99.90;;;;;;5051860;28;20409;-58
2022/07/23 02:32:34;;;;;;;12.05;6.28;;;14.40;99.90;;;;;;5067384;28;20401;-58
2022/07/23 02:35:00;;;;;;;12.35;6.95;;;14.30;99.90;;;;;;5051920;28;20177;-58
2022/07/23 02:37:26;;;;;;;12.25;6.07;;;14.20;99.90;;;;;;5050617;28;20047;-58
2022/07/23 02:39:52;;;;;;;11.15;6.47;;;14.30;99.90;;;;;;5051623;28;20037;-58
2022/07/23 02:42:17;;;;;;;11.60;6.38;;;14.20;99.90;;;;;;5066906;28;20191;-58
2022/07/23 02:44:43;;;;;;;13.38;7.20;;;14.30;99.90;;;;;;5051803;28;20116;-58
2022/07/23 02:47:09;;;;;;;13.07;6.63;;;14.40;99.90;;;;;;5051478;28;20055;-57
2022/07/23 02:49:34;;;;;;;9.68;6.10;;;14.40;99.90;;;;;;5055677;28;20040;-58
2022/07/23 02:52:01;;;;;;;13.02;6.10;;;14.40;99.90;;;;;;5055408;28;20516;-58
2022/07/23 02:54:27;;;;;;;12.05;6.82;;;14.40;99.90;;;;;;5055111;28;20056;-58
2022/07/23 02:56:53;;;;;;;13.13;7.15;;;14.40;99.90;;;;;;5055309;28;20033;-58
2022/07/23 02:59:18;;;;;;;12.13;6.88;;;14.30;99.90;;;;;;5055398;28;20440;-58
2022/07/23 03:01:45;;;;;;;14.00;6.93;;;14.40;99.90;;;;;;5055275;28;20396;-58
2022/07/23 03:04:11;;;;;;;12.77;6.82;;;14.30;99.90;;;;;;5053732;28;20037;-58
2022/07/23 03:06:37;;;;;;;11.43;6.97;;;14.30;99.90;;;;;;5055115;28;20035;-57
2022/07/23 03:09:04;;;;;;;11.30;6.72;;;14.40;99.90;;;;;;5055004;28;20088;-58
2022/07/23 03:11:29;;;;;;;13.38;6.85;;;14.30;99.90;;;;;;5053886;28;20059;-58
2022/07/23 03:13:55;;;;;;;12.18;6.10;;;14.40;99.90;;;;;;5055200;28;20041;-58
2022/07/23 03:16:21;;;;;;;11.77;6.93;;;14.20;99.90;;;;;;5054598;28;20041;-58
2022/07/23 03:18:46;;;;;;;11.82;6.57;;;14.10;99.90;;;;;;5054612;28;20041;-58
2022/07/23 03:21:12;;;;;;;12.27;6.20;;;14.00;99.90;;;;;;5040617;28;20040;-58
2022/07/23 03:23:38;;;;;;;12.98;6.63;;;14.20;99.90;;;;;;5034532;28;20041;-58
2022/07/23 03:26:04;;;;;;;11.07;7.60;;;14.30;99.90;;;;;;5034838;28;20151;-58
2022/07/23 03:28:30;;;;;;;11.27;6.63;;;14.30;99.90;;;;;;5034613;28;20500;-58
2022/07/23 03:30:56;;;;;;;10.70;6.68;;;14.40;99.90;;;;;;5034404;28;20061;-58
2022/07/23 03:33:22;;;;;;;13.48;7.57;;;14.40;99.90;;;;;;5034698;28;20390;-58
2022/07/23 03:35:48;;;;;;;15.70;7.47;;;14.50;99.90;;;;;;5049792;28;20041;-59
2022/07/23 03:38:15;;;;;;;10.70;6.38;;;14.40;99.90;;;;;;5034564;28;20033;-58
2022/07/23 03:40:40;;;;;;;12.18;7.40;;;14.20;99.90;;;;;;5034726;28;20065;-58
2022/07/23 03:43:06;;;;;;;10.73;6.15;;;14.10;99.90;;;;;;5033104;28;20049;-58
2022/07/23 03:45:32;;;;;;;12.35;6.38;;;14.30;99.90;;;;;;5034367;28;20041;-58
2022/07/23 03:47:58;;;;;;;12.55;7.22;;;14.00;99.90;;;;;;5034364;28;20084;-58
2022/07/23 03:50:24;;;;;;;12.95;7.28;;;14.00;99.90;;;;;;5034408;28;20485;-58
2022/07/23 03:52:49;;;;;;;11.18;6.72;;;13.90;99.90;;;;;;5034173;28;20049;-58
2022/07/23 03:55:15;;;;;;;14.50;7.63;;;13.90;99.90;;;;;;5033925;28;20089;-58
2022/07/23 03:57:41;;;;;;;12.75;7.70;;;14.00;99.90;;;;;;5034046;28;20116;-58
2022/07/23 04:00:09;;;;;;;11.23;6.63;;;14.00;99.90;;;;;;5033363;28;20037;-58
2022/07/23 04:02:38;;;;;;;12.55;7.95;;;14.10;99.90;;;;;;5034102;28;20052;-57
2022/07/23 04:05:04;;;;;;;12.48;7.10;;;14.10;99.90;;;;;;5034026;28;20072;-58
2022/07/23 04:07:30;;;;;;;13.52;6.53;;;14.00;99.90;;;;;;5033872;28;20045;-58
2022/07/23 04:09:56;;;;;;;11.73;6.50;;;14.20;99.90;;;;;;5034095;28;20033;-59
2022/07/23 04:12:22;;;;;;;15.10;7.28;;;14.10;99.90;;;;;;5033993;28;20041;-58
2022/07/23 04:14:48;;;;;;;12.95;6.60;;;13.90;99.90;;;;;;5034020;28;20129;-58
2022/07/23 04:17:13;;;;;;;12.18;6.70;;;13.90;99.90;;;;;;5033752;28;20179;-58
2022/07/23 04:19:41;;;;;;;11.00;6.28;;;13.80;99.90;;;;;;5034820;28;20044;-58
2022/07/23 04:22:11;;;;;;;12.60;6.35;;;13.70;99.90;;;;;;5053545;28;20098;-58
2022/07/23 04:24:37;;;;;;;15.05;6.78;;;13.80;99.90;;;;;;5068686;28;20233;-58
2022/07/23 04:27:02;;;;;;;12.80;6.47;;;13.90;99.90;;;;;;5053408;28;20524;-58
2022/07/23 04:29:28;;;;;;;13.00;6.38;;;13.90;99.90;;;;;;5053585;28;20055;-58
2022/07/23 04:31:54;;;;;;;14.45;6.82;;;13.80;99.90;;;;;;5068563;28;20056;-58
2022/07/23 04:34:20;;;;;;;13.73;7.07;;;13.90;99.90;;;;;;5053525;28;20469;-58
2022/07/23 04:36:46;;;;;;;12.38;6.68;;;14.00;99.90;;;;;;5053274;28;20033;-58
2022/07/23 04:39:11;;;;;;;10.65;6.43;;;13.90;99.90;;;;;;5068641;28;20095;-58
2022/07/23 04:41:37;;;;;;;10.50;6.47;;;13.80;99.90;;;;;;5053386;28;20032;-58
2022/07/23 04:44:03;;;;;;;11.40;6.05;;;14.00;99.90;;;;;;5053081;28;20382;-58
2022/07/23 04:46:29;;;;;;;13.57;6.75;;;14.10;99.90;;;;;;5085415;28;20049;-58
2022/07/23 04:48:54;;;;;;;11.32;6.20;;;14.00;99.90;;;;;;5052972;28;20401;-58
2022/07/23 04:51:20;;;;;;;9.23;5.22;;;14.10;99.90;;;;;;5052968;28;20040;-58
2022/07/23 04:53:46;;;;;;;10.25;5.38;;;14.00;99.90;;;;;;5068069;28;20447;-58
2022/07/23 04:56:12;;;;;;;14.13;6.38;;;14.00;99.90;;;;;;5053209;28;20037;-58
2022/07/23 04:58:37;;;;;;;11.02;5.90;;;14.00;99.90;;;;;;5053004;28;20068;-58
2022/07/23 05:01:03;;;;;;;12.35;6.32;;;13.90;99.90;;;;;;5052805;28;20037;-58
2022/07/23 05:03:29;;;;;;;10.60;6.38;;;14.00;99.90;;;;;;5052748;28;20056;-58
2022/07/23 05:05:54;;;;;;;10.85;6.03;;;13.80;99.90;;;;;;5052858;28;20072;-58
2022/07/23 05:08:20;;;;;;;14.68;6.07;;;13.90;99.90;;;;;;5051770;28;20174;-58
2022/07/23 05:10:46;;;;;;;12.25;6.00;;;14.00;99.90;;;;;;5052661;28;20063;-58
2022/07/23 05:13:11;;;;;;;9.73;5.43;;;13.90;99.90;;;;;;5052845;28;20037;-58
2022/07/23 05:15:37;;;;;;;9.98;4.78;;;14.10;99.90;;;;;;5052755;28;20037;-58
2022/07/23 05:18:03;;;;;;;10.98;4.93;;;14.10;99.90;;;;;;5052830;28;20044;-58
2022/07/23 05:20:29;;;;;;;12.65;5.20;;;14.10;99.90;;;;;;5060057;28;20029;-59
2022/07/23 05:22:54;;;;;;;8.90;5.15;;;14.20;99.90;;;;;;5032864;28;20099;-58
2022/07/23 05:25:20;;;;;;;14.48;5.13;;;14.40;99.90;;;;;;5031300;28;20144;-58
2022/07/23 05:27:46;;;;;;;9.63;5.05;;;14.60;99.90;;;;;;5032616;28;20049;-58
2022/07/23 05:30:12;;;;;;;8.40;4.30;;;14.60;99.90;;;;;;5032131;28;20060;-58
2022/07/23 05:32:37;;;;;;;9.35;4.95;;;14.50;99.90;;;;;;5032642;28;20133;-58
2022/07/23 05:35:05;;;;;;;10.38;5.18;;;14.60;99.90;;;;;;5047935;28;20116;-58
2022/07/23 05:37:31;;;;;;;12.77;4.80;;;14.60;99.90;;;;;;5032762;28;20040;-58
2022/07/23 05:40:04;;;;;;;11.23;5.65;;;14.70;99.90;;;;;;5032509;28;20041;-58
2022/07/23 05:42:29;;;;;;;8.77;4.28;;;14.50;99.90;;;;;;5032527;28;20081;-58
2022/07/23 05:44:55;;;;;;;8.45;4.53;;;14.70;99.90;;;;;;5032202;28;20084;-58
2022/07/23 05:47:21;;;;;;;7.57;4.50;;;14.60;99.90;;;;;;5030944;28;20049;-58
2022/07/23 05:49:46;;;;;;;10.27;4.97;;;14.70;99.90;;;;;;5030995;28;20053;-58
2022/07/23 05:52:12;;;;;;;10.05;4.25;;;14.50;99.90;;;;;;5032191;28;20087;-58
2022/07/23 05:54:38;;;;;;;8.00;3.80;;;14.60;99.90;;;;;;5032022;28;20099;-58
2022/07/23 05:57:04;;;;;;;8.85;4.30;;;14.70;99.90;;;;;;5032402;28;20068;-58
2022/07/23 05:59:30;;;;;;;8.38;3.67;;;14.80;99.90;;;;;;5030713;28;20037;-59
2022/07/23 06:01:55;;;;;;;8.95;5.00;;;14.80;99.90;;;;;;5031977;28;20087;-58
2022/07/23 06:04:21;;;;;;;8.45;3.67;;;14.80;99.90;;;;;;5032174;28;20410;-59
2022/07/23 06:06:47;;;;;;;7.57;3.70;;;15.00;99.90;;;;;;5032219;28;20706;-59
2022/07/23 06:09:13;;;;;;;10.88;4.40;;;15.00;99.90;;;;;;5032236;28;20442;-59
2022/07/23 06:11:40;;;;;;;7.20;3.35;;;15.10;99.90;;;;;;5032075;28;20046;-59
2022/07/23 06:14:06;;;;;;;7.13;3.50;;;15.20;99.90;;;;;;5032197;28;20033;-59
2022/07/23 06:16:31;;;;;;;8.25;3.60;;;15.30;99.90;;;;;;5030295;28;20038;-58
2022/07/23 06:18:57;;;;;;;7.22;2.97;;;15.40;99.90;;;;;;5032014;28;20037;-58
2022/07/23 06:21:22;;;;;;;6.93;3.10;;;15.30;99.90;;;;;;5047079;28;20055;-59
2022/07/23 06:23:48;;;;;;;6.55;2.92;;;15.20;99.90;;;;;;5054468;28;20045;-58
2022/07/23 06:26:14;;;;;;;6.05;2.50;;;15.30;99.90;;;;;;5055683;28;20037;-58
2022/07/23 06:28:40;;;;;;;5.93;2.53;;;15.30;99.90;;;;;;5055851;28;20041;-59
2022/07/23 06:31:05;;;;;;;6.43;2.65;;;15.50;99.90;;;;;;5055517;28;20456;-58
2022/07/23 06:33:31;;;;;;;5.20;2.88;;;15.70;99.90;;;;;;5055801;28;20108;-57
2022/07/23 06:35:57;;;;;;;5.05;2.20;;;15.90;99.90;;;;;;5055744;28;20394;-59
2022/07/23 06:38:22;;;;;;;4.43;1.70;;;16.00;99.90;;;;;;5055605;28;20103;-59
2022/07/23 06:40:48;;;;;;;5.53;1.70;;;16.10;99.90;;;;;;5055331;28;20045;-60
2022/07/23 06:43:14;;;;;;;4.25;1.77;;;16.20;99.90;;;;;;5055685;28;20071;-60
2022/07/23 06:45:39;;;;;;;4.57;1.27;;;16.50;99.90;;;;;;5071070;28;20420;-59
2022/07/23 06:48:05;;;;;;;3.60;1.40;;;16.60;99.90;;;;;;5055615;28;20070;-57
2022/07/23 06:50:31;;;;;;;4.60;1.45;;;16.70;99.90;;;;;;5055618;28;20425;-57
2022/07/23 06:52:57;;;;;;;4.07;1.00;;;16.90;99.90;;;;;;5055457;28;20497;-57
2022/07/23 06:55:22;;;;;;;3.85;1.23;;;16.80;99.90;;;;;;5055579;28;20048;-58
2022/07/23 06:57:48;;;;;;;4.15;1.05;;;17.00;99.90;;;;;;5055174;28;20516;-57
2022/07/23 07:00:14;;;;;;;3.42;0.80;;;17.00;99.90;;;;;;5055326;28;20045;-57
2022/07/23 07:02:39;;;;;;;1.77;0.80;;;17.00;99.90;;;;;;5055297;28;20738;-57
2022/07/23 07:05:05;;;;;;;3.03;0.70;;;17.10;99.90;;;;;;5055129;28;20076;-58
2022/07/23 07:07:31;;;;;;;3.58;0.70;;;17.20;99.90;;;;;;5055179;28;20378;-57
2022/07/23 07:09:57;;;;;;;2.60;0.73;;;17.20;99.90;;;;;;5055219;28;20041;-57
2022/07/23 07:12:22;;;;;;;2.97;0.70;;;17.20;99.90;;;;;;5054847;28;20493;-58
2022/07/23 07:14:48;;;;;;;3.10;1.10;;;17.20;99.90;;;;;;5055011;28;20036;-57
2022/07/23 07:17:15;;;;;;;4.22;1.00;;;17.40;99.90;;;;;;5054552;28;20041;-57
2022/07/23 07:19:41;;;;;;;4.45;1.60;;;17.50;99.90;;;;;;5053417;28;20114;-56
2022/07/23 07:22:06;;;;;;;2.60;0.90;;;17.40;99.90;;;;;;5034754;28;20695;-57
2022/07/23 07:24:32;;;;;;;3.70;0.80;;;17.40;99.90;;;;;;5034763;28;20041;-58
2022/07/23 07:26:58;;;;;;;4.90;1.13;;;17.30;99.90;;;;;;5034634;28;20041;-58
2022/07/23 07:29:23;;;;;;;3.00;0.80;;;17.20;99.90;;;;;;5034822;28;20037;-57
2022/07/23 07:31:49;;;;;;;1.85;0.70;;;17.10;99.90;;;;;;5034271;28;20061;-57
2022/07/23 07:34:15;;;;;;;1.70;0.82;;;16.90;99.90;;;;;;5033669;28;20055;-57
2022/07/23 07:36:41;;;;;;;3.25;0.85;;;17.00;99.90;;;;;;5034527;28;20034;-57
2022/07/23 07:39:06;;;;;;;3.90;0.98;;;17.10;99.90;;;;;;5049815;28;20041;-57
2022/07/23 07:41:32;;;;;;;4.95;1.10;;;17.20;99.90;;;;;;5034741;28;20095;-57
2022/07/23 07:43:58;;;;;;;1.55;0.60;;;17.40;99.90;;;;;;5033489;28;20520;-57
2022/07/23 07:46:24;;;;;;;3.10;0.77;;;17.40;99.90;;;;;;5049927;28;20049;-57
2022/07/23 07:48:50;;;;;;;2.50;0.77;;;17.50;99.90;;;;;;5034327;28;20156;-57
2022/07/23 07:51:16;;;;;;;1.85;0.73;;;17.30;99.90;;;;;;5034116;28;20489;-57
2022/07/23 07:53:41;;;;;;;2.25;0.70;;;17.30;99.90;;;;;;5034209;28;20043;-58
2022/07/23 07:56:07;;;;;;;2.72;0.82;;;17.30;99.90;;;;;;5032846;28;20041;-58
2022/07/23 07:58:33;;;;;;;3.53;0.75;;;17.40;99.90;;;;;;5034163;28;20053;-57
2022/07/23 08:01:00;;;;;;;2.10;0.85;;;17.80;99.90;;;;;;5032784;28;20083;-58
2022/07/23 08:03:26;;;;;;;2.42;0.90;;;17.90;99.90;;;;;;5049663;28;20397;-57
2022/07/23 08:05:51;;;;;;;3.25;0.75;;;18.00;99.90;;;;;;5033845;28;20041;-58
2022/07/23 08:08:17;;;;;;;3.90;1.02;;;18.00;99.90;;;;;;5033789;28;20045;-58
2022/07/23 08:10:43;;;;;;;2.17;0.75;;;17.80;99.90;;;;;;5033946;28;20083;-57
2022/07/23 08:13:15;;;;;;;4.78;1.00;;;17.80;99.90;;;;;;5033616;28;20080;-57
2022/07/23 08:15:42;;;;;;;2.30;0.90;;;17.80;99.90;;;;;;5034015;28;20056;-58
2022/07/23 08:18:08;;;;;;;3.13;1.15;;;17.70;99.90;;;;;;5033818;28;20037;-57
2022/07/23 08:20:33;;;;;;;4.05;0.90;;;17.70;99.90;;;;;;5042493;28;20041;-57
2022/07/23 08:23:04;;;;;;;4.65;0.90;;;17.70;99.90;;;;;;5053777;28;20080;-57
2022/07/23 08:25:32;;;;;;;4.00;0.90;;;17.50;99.90;;;;;;5054004;28;20124;-58
2022/07/23 08:28:00;;;;;;;3.40;0.90;;;17.50;99.90;;;;;;5053687;28;20053;-57
2022/07/23 08:30:26;;;;;;;1.75;0.80;;;17.60;99.90;;;;;;5053369;28;20057;-57
2022/07/23 08:32:52;;;;;;;3.33;1.02;;;17.50;99.90;;;;;;5053204;28;20497;-58
2022/07/23 08:35:22;;;;;;;2.53;0.98;;;17.70;99.90;;;;;;5053339;28;20037;-57
2022/07/23 08:37:48;;;;;;;4.53;1.10;;;17.90;99.90;;;;;;5053447;28;20071;-57
2022/07/23 08:40:14;;;;;;;3.90;0.90;;;18.00;99.90;;;;;;5053165;28;20124;-57
2022/07/23 08:42:40;;;;;;;4.07;1.00;;;18.10;99.90;;;;;;5053049;28;20048;-57
2022/07/23 08:45:08;;;;;;;1.70;0.90;;;18.10;99.90;;;;;;5051646;28;20127;-57
2022/07/23 08:47:35;;;;;;;2.88;0.90;;;17.90;99.90;;;;;;5052992;28;20622;-58
2022/07/23 08:50:01;;;;;;;5.82;1.10;;;17.90;99.90;;;;;;5053164;28;20112;-58
2022/07/23 08:52:28;;;;;;;3.13;0.90;;;17.80;99.90;;;;;;5053145;28;20422;-58
2022/07/23 08:54:56;;;;;;;4.38;0.98;;;17.80;99.90;;;;;;5053299;28;20041;-58
2022/07/23 08:57:22;;;;;;;4.63;1.23;;;17.70;99.90;;;;;;5068544;28;20145;-58
2022/07/23 08:59:47;;;;;;;4.25;1.33;;;17.80;99.90;;;;;;5053050;28;20071;-58
2022/07/23 09:02:13;;;;;;;6.47;2.10;;;17.80;99.90;;;;;;5052806;28;20049;-58
2022/07/23 09:04:39;;;;;;;3.53;1.00;;;17.70;99.90;;;;;;5052839;28;20041;-58
2022/07/23 09:07:05;;;;;;;2.60;0.80;;;17.70;99.90;;;;;;5052779;28;20103;-57
2022/07/23 09:09:31;;;;;;;3.50;1.08;;;17.70;99.90;;;;;;5052671;28;20048;-57
2022/07/23 09:12:04;;;;;;;3.58;0.90;;;17.60;99.90;;;;;;5052888;28;20076;-57
2022/07/23 09:14:40;;;;;;;4.50;1.08;;;17.60;99.90;;;;;;5052585;28;20493;-58
2022/07/23 09:17:14;;;;;;;4.57;1.10;;;17.60;99.90;;;;;;5052658;28;20028;-59
2022/07/23 09:19:42;;;;;;;4.72;1.10;;;17.60;99.90;;;;;;5066226;28;20048;-58
2022/07/23 09:22:22;;;;;;;3.75;1.20;;;17.70;99.90;;;;;;5032333;28;20041;-58
2022/07/23 09:25:07;;;;;;;3.30;1.00;;;17.70;99.90;;;;;;5032356;28;20049;-59
2022/07/23 09:27:48;;;;;;;6.00;1.10;;;17.60;99.90;;;;;;5032273;28;20516;-57
2022/07/23 09:30:14;;;;;;;2.55;1.13;;;17.80;99.90;;;;;;5032179;28;20187;-59
2022/07/23 09:32:40;;;;;;;2.75;0.90;;;17.90;99.90;;;;;;5032503;28;20125;-57
2022/07/23 09:35:07;;;;;;;2.60;0.90;;;17.80;99.90;;;;;;5031521;28;20440;-58
2022/07/23 09:37:33;;;;;;;4.60;1.48;;;17.80;99.90;;;;;;5032525;28;20406;-58
2022/07/23 09:40:13;;;;;;;3.60;1.15;;;17.90;99.90;;;;;;5032590;28;20033;-57
2022/07/23 09:42:38;;;;;;;4.60;0.93;;;17.90;99.90;;;;;;5032269;28;20132;-58
2022/07/23 09:45:11;;;;;;;4.30;1.10;;;17.80;99.90;;;;;;5032499;28;20172;-57
2022/07/23 09:47:36;;;;;;;4.65;1.05;;;17.60;99.90;;;;;;5032437;28;20469;-57
2022/07/23 09:50:05;;;;;;;4.43;1.45;;;17.70;99.90;;;;;;5032072;28;20037;-58
2022/07/23 09:52:42;;;;;;;5.22;1.17;;;17.80;99.90;;;;;;5047481;28;20171;-58
2022/07/23 09:55:08;;;;;;;5.68;1.20;;;17.70;99.90;;;;;;5046711;28;20491;-57
2022/07/23 09:57:34;;;;;;;3.38;1.17;;;17.70;99.90;;;;;;5031451;28;20049;-58
2022/07/23 10:00:09;;;;;;;2.92;0.90;;;17.60;99.90;;;;;;5032407;28;20104;-58
2022/07/23 10:02:36;;;;;;;3.60;1.02;;;17.70;99.90;;;;;;5031182;28;20158;-57
2022/07/23 10:05:02;;;;;;;3.72;1.00;;;17.60;99.90;;;;;;5032339;28;20041;-58
2022/07/23 10:07:33;;;;;;;3.35;1.17;;;17.80;99.90;;;;;;5032460;28;20056;-58
2022/07/23 10:10:00;;;;;;;7.38;1.40;;;17.80;99.90;;;;;;5031971;28;20375;-57
2022/07/23 10:14:52;;;;;;;4.15;1.42;;;18.00;99.90;;;;;;5047450;28;20041;-57
2022/07/23 10:17:18;;;;;;;5.05;1.25;;;18.00;99.90;;;;;;5047265;28;20041;-58
2022/07/23 10:19:44;;;;;;;4.78;1.40;;;18.00;99.90;;;;;;5034060;28;20087;-58
2022/07/23 10:22:19;;;;;;;5.05;1.20;;;18.10;99.90;;;;;;5051820;28;20047;-58
2022/07/23 10:25:13;;;;;;;3.80;1.40;;;18.40;99.90;;;;;;5051643;28;20048;-58
2022/07/23 10:28:06;;;;;;;4.40;1.50;;;18.60;99.90;;;;;;5052015;28;20044;-57
2022/07/23 10:30:34;;;;;;;4.55;1.55;;;18.70;99.90;;;;;;5051628;28;20061;-58
2022/07/23 10:33:14;;;;;;;5.68;1.60;;;18.60;99.90;;;;;;5051847;28;20049;-58
2022/07/23 10:35:59;;;;;;;5.32;1.40;;;18.40;99.90;;;;;;5051796;28;20041;-58
2022/07/23 10:38:30;;;;;;;6.45;1.60;;;18.40;99.90;;;;;;5051859;28;20050;-58
2022/07/23 10:41:01;;;;;;;4.75;1.40;;;18.50;99.90;;;;;;5051631;28;20076;-58
2022/07/23 10:43:28;;;;;;;4.47;1.20;;;18.50;99.90;;;;;;5051427;28;20538;-58
2022/07/23 10:45:54;;;;;;;4.95;1.60;;;18.60;99.90;;;;;;5052192;28;20648;-58
2022/07/23 10:48:21;;;;;;;5.18;1.48;;;18.60;99.90;;;;;;5051451;28;20478;-57
2022/07/23 10:51:07;;;;;;;5.30;2.03;;;18.70;99.90;;;;;;5051689;28;20037;-58
2022/07/23 10:53:51;;;;;;;3.63;1.33;;;18.70;99.90;;;;;;5051172;28;20076;-58
2022/07/23 10:56:38;;;;;;;3.35;1.20;;;18.60;99.90;;;;;;5051371;28;20041;-58
2022/07/23 10:59:04;;;;;;;5.75;1.85;;;18.60;99.90;;;;;;5040038;28;20413;-58
2022/07/23 11:01:37;;;;;;;4.28;1.40;;;18.50;99.90;;;;;;5051591;28;20400;-58
2022/07/23 11:04:07;;;;;;;4.68;1.77;;;18.40;99.90;;;;;;5066815;28;20052;-59
2022/07/23 11:06:50;;;;;;;6.05;1.60;;;18.50;99.90;;;;;;5051326;28;20102;-59
2022/07/23 11:09:26;;;;;;;5.57;1.73;;;18.60;99.90;;;;;;5052804;28;20068;-58
2022/07/23 11:12:21;;;;;;;4.68;1.25;;;18.70;99.90;;;;;;5055123;28;20049;-58
2022/07/23 11:15:10;;;;;;;3.80;1.10;;;18.60;99.90;;;;;;5052062;28;20057;-58
2022/07/23 11:17:43;;;;;;;3.67;1.27;;;18.60;99.90;;;;;;5055119;28;20170;-57
2022/07/23 11:20:12;;;;;;;4.22;1.17;;;18.70;99.90;;;;;;5049902;28;20076;-58
2022/07/23 11:22:38;;;;;;;4.85;1.20;;;19.00;99.90;;;;;;5034915;28;20060;-58
2022/07/23 11:25:05;;;;;;;5.72;1.58;;;19.20;99.90;;;;;;5034568;28;20049;-58
2022/07/23 11:27:45;;;;;;;6.05;1.40;;;19.40;99.90;;;;;;5034866;28;20045;-59
2022/07/23 11:30:30;;;;;;;4.55;1.00;;;19.10;99.90;;;;;;5034491;28;20120;-57
2022/07/23 11:33:08;;;;;;;7.55;1.70;;;19.10;99.90;;;;;;5049792;28;20091;-58
2022/07/23 11:35:38;;;;;;;3.63;1.15;;;19.20;99.90;;;;;;5034663;28;20393;-57
2022/07/23 11:38:12;;;;;;;4.30;1.20;;;19.30;99.90;;;;;;5033191;28;20046;-57
2022/07/23 11:40:38;;;;;;;5.47;1.10;;;19.40;99.90;;;;;;5034746;28;20428;-58
2022/07/23 11:43:06;;;;;;;4.60;1.42;;;19.40;99.90;;;;;;5034477;28;20037;-58
2022/07/23 11:45:38;;;;;;;2.50;1.20;;;19.40;99.90;;;;;;5034595;28;20040;-58
2022/07/23 11:48:06;;;;;;;3.63;1.10;;;19.50;99.90;;;;;;5034512;28;20050;-58
2022/07/23 11:50:32;;;;;;;4.25;1.27;;;19.60;99.90;;;;;;5034499;28;20099;-58
2022/07/23 11:52:58;;;;;;;5.03;1.25;;;19.60;99.90;;;;;;5034245;28;20037;-48
2022/07/23 11:55:24;;;;;;;5.75;1.30;;;19.80;99.90;;;;;;5049554;28;20045;-48
2022/07/23 11:57:52;;;;;;;4.43;1.42;;;19.90;99.90;;;;;;5034272;28;20037;-49
2022/07/23 12:00:21;;;;;;;4.78;1.23;;;19.70;99.90;;;;;;5034126;28;20394;-47
2022/07/23 12:02:49;;;;;;;3.85;1.40;;;19.70;99.90;;;;;;5034394;28;20091;-48
2022/07/23 12:05:18;;;;;;;3.70;1.27;;;19.70;99.90;;;;;;5034059;28;20145;-46
2022/07/23 12:07:49;;;;;;;5.07;1.95;;;20.00;99.90;;;;;;5034008;28;20124;-47
2022/07/23 12:10:17;;;;;;;4.60;1.27;;;20.00;99.90;;;;;;5033931;28;20083;-47
2022/07/23 12:12:46;;;;;;;3.97;1.23;;;20.20;99.90;;;;;;5033804;28;20509;-47
2022/07/23 12:15:13;;;;;;;4.53;1.30;;;20.20;99.90;;;;;;5033647;28;20497;-46
2022/07/23 12:17:40;;;;;;;3.58;1.35;;;20.40;99.90;;;;;;5033695;28;20506;-48
2022/07/23 12:20:09;;;;;;;3.85;1.10;;;20.40;99.90;;;;;;5038326;28;20056;-46
2022/07/23 12:22:38;;;;;;;4.15;1.13;;;20.60;99.90;;;;;;5053485;28;20041;-48
2022/07/23 12:25:06;;;;;;;5.80;1.42;;;20.70;99.90;;;;;;5053285;28;20083;-45
2022/07/23 12:27:31;;;;;;;6.47;1.20;;;20.70;99.90;;;;;;5053289;28;20041;-48
2022/07/23 12:29:57;;;;;;;3.10;1.15;;;20.30;99.90;;;;;;5053551;28;20397;-46
2022/07/23 12:32:26;;;;;;;5.00;1.20;;;20.60;99.90;;;;;;5052908;28;20128;-46
2022/07/23 12:35:06;;;;;;;2.63;1.15;;;20.60;99.90;;;;;;5053438;28;20124;-45
2022/07/23 12:37:36;;;;;;;3.75;1.10;;;21.10;99.90;;;;;;5053277;28;20069;-46
2022/07/23 12:40:34;;;;;;;4.93;1.20;;;21.30;99.90;;;;;;5053328;28;20076;-46
2022/07/23 12:43:09;;;;;;;4.00;1.25;;;20.90;99.90;;;;;;5053432;28;20048;-47
2022/07/23 12:46:05;;;;;;;7.03;1.50;;;20.90;99.90;;;;;;5053149;28;20048;-46
2022/07/23 12:48:36;;;;;;;4.97;1.27;;;20.40;99.90;;;;;;5045278;28;20098;-46